Time;durP1;ratioP1;P1;durP2;ratioP2;P2;SDS_P1;SDS_P2;PMS_P1;PMS_P2;Temp;Humidity;BMP_temperature;BMP_pressure;BME280_temperature;BME280_humidity;BME280_pressure;Samples;Min_cycle;Max_cycle;Signal;HPM_P1;HPM_P2
2021/12/12 00:01:34;;;;;;;20.08;8.18;;;;;;;5.45;100.00;101967.00;5253613;28;20471;-71
2021/12/12 00:04:13;;;;;;;19.95;9.02;;;;;;;5.40;100.00;101973.34;5253411;28;20065;-71
2021/12/12 00:06:49;;;;;;;18.60;8.23;;;;;;;5.40;100.00;101970.75;5252297;28;20031;-71
2021/12/12 00:09:25;;;;;;;19.92;7.82;;;;;;;5.40;100.00;101970.75;5253343;28;20072;-71
2021/12/12 00:11:59;;;;;;;24.23;8.20;;;;;;;5.43;100.00;101974.06;5253514;28;20499;-71
2021/12/12 00:14:31;;;;;;;;;;;;;;;5.87;100.00;101963.34;5253246;28;20394;-71
2021/12/12 00:17:05;;;;;;;18.02;7.68;;;;;;;5.49;100.00;101959.94;5252864;28;19912;-71
2021/12/12 00:19:38;;;;;;;19.17;8.15;;;;;;;5.46;100.00;101954.88;5253784;28;20075;-71
2021/12/12 00:22:16;;;;;;;22.25;7.60;;;;;;;5.51;100.00;101950.31;5257700;28;20013;-71
2021/12/12 00:24:48;;;;;;;18.33;7.55;;;;;;;5.49;100.00;101966.00;5256295;28;20094;-71
2021/12/12 00:27:21;;;;;;;28.00;8.50;;;;;;;5.40;100.00;101948.19;5257563;28;20413;-71
2021/12/12 00:29:52;;;;;;;20.88;8.38;;;;;;;5.47;100.00;101949.59;5257995;28;20029;-71
2021/12/12 00:32:26;;;;;;;18.83;8.20;;;;;;;5.44;100.00;101949.75;5239323;28;20083;-71
2021/12/12 00:35:00;;;;;;;;;;;;;;;5.88;100.00;101948.63;5256658;28;20052;-71
2021/12/12 00:37:33;;;;;;;19.40;6.93;;;;;;;5.44;100.00;101943.72;5257824;28;20584;-71
2021/12/12 00:40:15;;;;;;;15.23;6.55;;;;;;;5.50;100.00;101943.44;5257937;28;20370;-71
2021/12/12 00:42:47;;;;;;;16.77;7.38;;;;;;;5.49;100.00;101942.59;5256641;28;20123;-71
2021/12/12 00:45:18;;;;;;;17.48;7.47;;;;;;;5.43;100.00;101935.06;5257117;28;20416;-71
2021/12/12 00:47:50;;;;;;;19.02;7.82;;;;;;;5.49;100.00;101931.34;5257509;28;20048;-71
2021/12/12 00:50:36;;;;;;;20.50;7.28;;;;;;;5.63;100.00;101931.53;5255865;28;20444;-71
2021/12/12 00:53:09;;;;;;;18.90;7.25;;;;;;;5.48;100.00;101933.09;5244679;28;20025;-71
2021/12/12 00:55:44;;;;;;;23.98;8.27;;;;;;;5.49;100.00;101933.94;5257193;28;20064;-71
2021/12/12 00:58:17;;;;;;;16.38;7.75;;;;;;;5.50;100.00;101930.44;5256926;28;20028;-71
2021/12/12 01:00:53;;;;;;;21.35;7.95;;;;;;;5.54;100.00;101919.00;5237544;28;20017;-71
2021/12/12 01:03:29;;;;;;;20.67;7.45;;;;;;;5.49;100.00;101916.59;5256655;28;20124;-71
2021/12/12 01:06:02;;;;;;;19.83;8.43;;;;;;;5.47;100.00;101915.81;5256589;28;20513;-71
2021/12/12 01:08:35;;;;;;;19.52;7.47;;;;;;;5.50;100.00;101913.09;5256856;28;20029;-71
2021/12/12 01:11:30;;;;;;;23.35;8.07;;;;;;;5.70;100.00;101911.31;5255715;28;20128;-71
2021/12/12 01:14:05;;;;;;;21.27;7.55;;;;;;;5.57;100.00;101922.28;5246713;28;20056;-71
2021/12/12 01:16:47;;;;;;;26.08;8.85;;;;;;;5.60;100.00;101923.88;5256725;28;20017;-71
2021/12/12 01:19:51;;;;;;;19.05;8.35;;;;;;;5.70;100.00;101922.53;5255992;28;20063;-71
2021/12/12 01:22:31;;;;;;;20.85;7.88;;;;;;;5.60;100.00;101916.09;5256143;28;20037;-71
2021/12/12 01:25:19;;;;;;;21.33;7.97;;;;;;;5.70;100.00;101919.09;5256373;28;20094;-71
2021/12/12 01:27:51;;;;;;;22.10;7.60;;;;;;;5.55;100.00;101921.50;5254164;28;20083;-71
2021/12/12 01:30:26;;;;;;;21.05;8.02;;;;;;;5.53;100.00;101919.88;5256741;28;20556;-71
2021/12/12 01:32:57;;;;;;;20.88;8.40;;;;;;;5.49;100.00;101908.81;5255428;28;20394;-71
2021/12/12 01:35:29;;;;;;;20.73;7.80;;;;;;;5.56;100.00;101919.75;5237869;28;20021;-71
2021/12/12 01:40:57;;;;;;;22.20;7.82;;;;;;;5.61;100.00;101923.00;5256176;28;20033;-71
2021/12/12 01:43:40;;;;;;;17.60;8.05;;;;;;;5.65;100.00;101918.50;5256343;28;20028;-72
2021/12/12 01:46:22;;;;;;;23.83;8.45;;;;;;;5.67;100.00;101916.66;5255017;28;20044;-71
2021/12/12 01:48:57;;;;;;;20.60;8.25;;;;;;;5.63;100.00;101915.94;5256079;28;20052;-71
2021/12/12 01:51:30;;;;;;;21.63;8.10;;;;;;;5.63;100.00;101917.72;5256251;28;20159;-71
2021/12/12 01:54:06;;;;;;;22.02;8.32;;;;;;;5.67;100.00;101919.25;5254367;28;20514;-71
2021/12/12 01:56:43;;;;;;;27.00;8.55;;;;;;;5.71;100.00;101913.81;5255839;28;20142;-71
2021/12/12 01:59:14;;;;;;;23.27;8.25;;;;;;;5.68;100.00;101913.13;5257229;28;20470;-70
2021/12/12 02:01:57;;;;;;;21.10;8.68;;;;;;;5.77;100.00;101903.16;5255333;28;20043;-70
2021/12/12 02:04:34;;;;;;;17.88;7.70;;;;;;;5.76;100.00;101913.63;5255339;28;20021;-70
2021/12/12 02:07:08;;;;;;;21.10;8.38;;;;;;;5.76;100.00;101914.47;5255689;28;20069;-70
2021/12/12 02:09:40;;;;;;;20.35;8.23;;;;;;;5.71;100.00;101903.44;5255749;28;20108;-70
2021/12/12 02:12:12;;;;;;;18.85;8.25;;;;;;;5.71;100.00;101903.44;5254448;28;20514;-70
2021/12/12 02:14:44;;;;;;;21.90;8.30;;;;;;;5.77;100.00;101907.50;5255169;28;20029;-70
2021/12/12 02:17:24;;;;;;;22.80;8.45;;;;;;;5.83;100.00;101907.19;5255528;28;20041;-70
2021/12/12 02:20:13;;;;;;;20.98;7.65;;;;;;;5.86;100.00;101894.88;5255160;28;20119;-70
2021/12/12 02:36:49;;;;;;;21.08;7.57;;;;;;;5.94;100.00;101902.34;5254361;28;20124;-70
2021/12/12 02:39:21;;;;;;;17.48;6.95;;;;;;;5.94;100.00;101893.72;5255510;28;20124;-70
2021/12/12 02:41:58;;;;;;;17.83;7.20;;;;;;;6.00;100.00;101894.25;5236603;28;20028;-70
2021/12/12 02:44:35;;;;;;;22.05;7.65;;;;;;;6.04;100.00;101885.38;5253691;28;20336;-70
2021/12/12 02:47:13;;;;;;;23.08;7.85;;;;;;;6.04;100.00;101874.16;5254552;28;20033;-70
2021/12/12 02:52:26;;;;;;;24.20;7.75;;;;;;;6.03;100.00;101862.06;5253149;28;20041;-70
2021/12/12 02:55:04;;;;;;;21.55;7.68;;;;;;;5.98;100.00;101861.44;5254515;28;20063;-70
2021/12/12 02:57:35;;;;;;;18.52;7.90;;;;;;;6.02;100.00;101866.44;5255107;28;20037;-70
2021/12/12 03:00:12;;;;;;;17.10;7.25;;;;;;;6.09;100.00;101864.34;5253351;28;20040;-71
2021/12/12 03:02:46;;;;;;;16.95;7.88;;;;;;;6.03;100.00;101868.09;5254961;28;20032;-70
2021/12/12 03:05:21;;;;;;;16.73;7.78;;;;;;;6.03;100.00;101862.91;5254254;28;20534;-70
2021/12/12 03:07:52;;;;;;;30.33;9.05;;;;;;;5.94;100.00;101845.13;5254757;28;20033;-71
2021/12/12 03:10:29;;;;;;;25.83;8.35;;;;;;;6.07;100.00;101858.41;5253243;28;20921;-70
2021/12/12 03:13:00;;;;;;;23.58;8.18;;;;;;;5.99;100.00;101856.16;5253457;28;20048;-71
2021/12/12 03:15:38;;;;;;;15.77;7.78;;;;;;;6.09;100.00;101865.19;5254466;28;20470;-70
2021/12/12 03:18:17;;;;;;;17.80;7.07;;;;;;;6.15;100.00;101860.63;5253185;28;20033;-70
2021/12/12 03:20:54;;;;;;;19.52;7.75;;;;;;;6.18;100.00;101863.91;5254067;28;20017;-70
2021/12/12 03:23:34;;;;;;;19.92;7.35;;;;;;;6.24;100.00;101865.34;5254431;28;20082;-70
2021/12/12 03:26:08;;;;;;;28.55;8.43;;;;;;;6.13;100.00;101854.63;5254470;28;20035;-70
2021/12/12 03:28:43;;;;;;;20.77;7.95;;;;;;;6.07;100.00;101843.63;5253309;28;20032;-70
2021/12/12 03:31:22;;;;;;;20.63;8.18;;;;;;;6.11;100.00;101843.47;5253651;28;20025;-70
2021/12/12 03:33:54;;;;;;;23.02;8.50;;;;;;;6.04;100.00;101848.97;5253830;28;20115;-70
2021/12/12 03:36:26;;;;;;;27.45;9.35;;;;;;;6.07;100.00;101846.22;5253010;28;20043;-70
2021/12/12 03:39:05;;;;;;;18.00;7.77;;;;;;;6.13;100.00;101833.81;5253592;28;20029;-70
2021/12/12 03:41:38;;;;;;;29.80;9.32;;;;;;;6.10;100.00;101832.22;5254022;28;20544;-70
2021/12/12 03:44:17;;;;;;;22.60;8.98;;;;;;;6.18;100.00;101835.28;5252317;28;20143;-70
2021/12/12 03:46:53;;;;;;;23.67;9.20;;;;;;;6.12;100.00;101842.53;5252714;28;20086;-70
2021/12/12 03:49:25;;;;;;;21.00;8.70;;;;;;;6.09;100.00;101833.97;5254486;28;20041;-70
2021/12/12 03:51:57;;;;;;;21.63;8.52;;;;;;;6.17;100.00;101843.16;5253327;28;20522;-70
2021/12/12 03:54:28;;;;;;;21.20;8.52;;;;;;;6.11;100.00;101826.09;5235124;28;20036;-70
2021/12/12 03:57:00;;;;;;;26.38;8.35;;;;;;;6.16;100.00;101834.50;5253587;28;20541;-70
2021/12/12 03:59:32;;;;;;;16.20;8.05;;;;;;;6.13;100.00;101826.00;5253322;28;20345;-70
2021/12/12 04:02:05;;;;;;;16.42;9.70;;;;;;;6.17;100.00;101835.34;5252747;28;20387;-70
2021/12/12 04:04:40;;;;;;;14.90;8.30;;;;;;;6.23;100.00;101822.03;5253740;28;20516;-70
2021/12/12 04:07:16;;;;;;;17.95;8.75;;;;;;;6.20;100.00;101827.38;5253147;28;20071;-70
2021/12/12 04:09:48;;;;;;;20.70;8.70;;;;;;;6.23;100.00;101843.69;5252844;28;20047;-70
2021/12/12 04:12:21;;;;;;;18.98;7.85;;;;;;;6.23;100.00;101829.84;5249378;28;20432;-70
2021/12/12 04:14:55;;;;;;;23.08;8.52;;;;;;;6.31;100.00;101833.72;5251598;28;20136;-70
2021/12/12 04:17:29;;;;;;;16.15;7.35;;;;;;;6.32;100.00;101843.22;5253242;28;20043;-70
2021/12/12 04:20:08;;;;;;;16.45;7.55;;;;;;;6.33;100.00;101841.47;5254067;28;20145;-71
2021/12/12 04:22:40;;;;;;;15.35;6.72;;;;;;;6.33;100.00;101842.31;5251737;28;20021;-70
2021/12/12 04:25:12;;;;;;;20.52;6.95;;;;;;;6.32;100.00;101843.22;5253289;28;20041;-70
2021/12/12 04:27:44;;;;;;;16.17;6.57;;;;;;;6.34;100.00;101841.38;5234946;28;20032;-71
2021/12/12 04:30:16;;;;;;;16.05;6.38;;;;;;;6.33;100.00;101838.88;5252663;28;20044;-70
2021/12/12 04:32:48;;;;;;;14.20;6.22;;;;;;;6.43;100.00;101845.28;5235553;28;20290;-70
2021/12/12 04:35:25;;;;;;;13.90;6.47;;;;;;;6.43;100.00;101842.66;5253772;28;20478;-70
2021/12/12 04:37:58;;;;;;;14.27;6.40;;;;;;;6.42;100.00;101845.34;5251645;28;20049;-70
2021/12/12 04:40:31;;;;;;;;;;;;;;;6.82;100.00;101833.72;5253388;28;20021;-71
2021/12/12 04:43:04;;;;;;;13.15;6.40;;;;;;;6.50;100.00;101840.59;5253558;28;19966;-70
2021/12/12 04:46:07;;;;;;;14.50;7.35;;;;;;;6.56;100.00;101835.91;5252523;28;20073;-71
2021/12/12 04:51:49;;;;;;;11.20;6.38;;;;;;;6.51;100.00;101842.28;5253228;28;20088;-70
2021/12/12 04:54:43;;;;;;;14.07;6.25;;;;;;;6.64;100.00;101842.50;5252410;28;20375;-71
2021/12/12 04:57:22;;;;;;;12.60;6.20;;;;;;;6.58;100.00;101839.25;5253182;28;20029;-70
2021/12/12 05:00:19;;;;;;;11.38;5.75;;;;;;;6.54;100.00;101848.16;5253652;28;20456;-70
2021/12/12 05:03:14;;;;;;;13.75;5.85;;;;;;;6.76;100.00;101844.44;5251710;28;20460;-70
2021/12/12 05:06:01;;;;;;;10.68;5.80;;;;;;;6.67;100.00;101848.38;5251455;28;20036;-70
2021/12/12 05:08:39;;;;;;;12.55;6.38;;;;;;;6.66;100.00;101853.66;5256015;28;20051;-71
2021/12/12 05:11:19;;;;;;;11.88;6.07;;;;;;;6.67;100.00;101853.59;5253905;28;20094;-71
2021/12/12 05:13:55;;;;;;;11.48;6.43;;;;;;;6.65;100.00;101851.97;5255437;28;20554;-71
2021/12/12 05:16:31;;;;;;;10.43;5.47;;;;;;;6.68;100.00;101859.63;5257086;28;20052;-70
2021/12/12 05:19:13;;;;;;;14.52;6.63;;;;;;;6.69;100.00;101869.97;5257189;28;20636;-71
2021/12/12 05:21:53;;;;;;;8.68;5.65;;;;;;;6.72;100.00;101868.97;5255501;28;20021;-71
2021/12/12 05:24:28;;;;;;;10.50;5.82;;;;;;;6.68;100.00;101867.44;5256763;28;20029;-71
2021/12/12 05:27:08;;;;;;;11.30;5.82;;;;;;;6.76;100.00;101867.88;5256559;28;20120;-70
2021/12/12 05:29:46;;;;;;;8.48;5.85;;;;;;;6.77;100.00;101869.56;5256023;28;20016;-71
2021/12/12 05:32:19;;;;;;;9.90;5.60;;;;;;;6.76;100.00;101863.50;5238387;28;20028;-71
2021/12/12 05:34:51;;;;;;;9.30;5.88;;;;;;;6.76;100.00;101873.09;5256902;28;20040;-71
2021/12/12 05:37:24;;;;;;;8.40;5.38;;;;;;;6.74;100.00;101867.97;5255135;28;20732;-70
2021/12/12 05:40:00;;;;;;;11.02;5.57;;;;;;;6.81;100.00;101864.09;5256817;28;20021;-71
2021/12/12 05:42:32;;;;;;;11.93;5.35;;;;;;;6.78;100.00;101858.22;5256241;28;20406;-71
2021/12/12 05:45:07;;;;;;;11.52;6.30;;;;;;;6.81;100.00;101865.88;5256194;28;20577;-71
2021/12/12 05:47:38;;;;;;;9.63;5.50;;;;;;;6.82;100.00;101864.97;5254439;28;20406;-70
2021/12/12 05:50:11;;;;;;;9.13;4.72;;;;;;;6.90;100.00;101864.56;5238134;28;20333;-71
2021/12/12 05:52:45;;;;;;;6.50;5.13;;;;;;;6.89;100.00;101868.91;5256634;28;20487;-71
2021/12/12 05:55:17;;;;;;;10.35;5.90;;;;;;;6.85;100.00;101870.00;5255003;28;20116;-71
2021/12/12 05:57:54;;;;;;;5.70;4.75;;;;;;;6.96;100.00;101872.03;5255694;28;20458;-71
2021/12/12 06:00:50;;;;;;;9.95;5.65;;;;;;;7.04;100.00;101875.06;5256620;28;20071;-71
2021/12/12 06:03:25;;;;;;;11.13;6.15;;;;;;;7.02;100.00;101888.19;5255130;28;20049;-71
2021/12/12 06:05:58;;;;;;;9.15;5.95;;;;;;;6.99;100.00;101888.34;5255323;28;20045;-71
2021/12/12 06:08:30;;;;;;;8.60;5.45;;;;;;;7.04;100.00;101888.94;5255939;28;20044;-71
2021/12/12 06:11:04;;;;;;;8.40;5.53;;;;;;;7.12;100.00;101890.28;5254836;28;20386;-71
2021/12/12 06:13:37;;;;;;;;;;;;;;;7.51;100.00;101889.91;5256612;28;20494;-71
2021/12/12 06:16:18;;;;;;;9.57;6.13;;;;;;;7.12;100.00;101896.34;5255809;28;19912;-71
2021/12/12 06:19:12;;;;;;;14.07;6.90;;;;;;;7.22;100.00;101896.69;5255675;28;20108;-71
2021/12/12 06:21:48;;;;;;;10.07;7.18;;;;;;;7.10;100.00;101898.22;5254692;28;20474;-71
2021/12/12 06:24:23;;;;;;;13.02;7.00;;;;;;;7.11;100.00;101896.44;5256015;28;20033;-71
2021/12/12 06:26:56;;;;;;;9.38;7.07;;;;;;;7.13;100.00;101895.44;5254873;28;20044;-72
2021/12/12 06:29:28;;;;;;;9.52;7.22;;;;;;;7.13;100.00;101897.22;5254480;28;20029;-71
2021/12/12 06:32:01;;;;;;;9.30;7.47;;;;;;;7.17;100.00;101889.13;5255159;28;20494;-71
2021/12/12 06:34:32;;;;;;;;;;;;;;;7.49;100.00;101897.81;5256136;28;20714;-71
2021/12/12 06:37:05;;;;;;;9.77;7.53;;;;;;;7.21;100.00;101895.03;5254461;28;19924;-72
2021/12/12 06:39:37;;;;;;;8.50;6.80;;;;;;;7.22;100.00;101894.09;5255564;28;20037;-71
2021/12/12 06:42:10;;;;;;;8.63;6.97;;;;;;;7.27;100.00;101889.47;5254968;28;20471;-72
2021/12/12 06:44:42;;;;;;;10.65;7.32;;;;;;;7.26;100.00;101887.78;5253173;28;20044;-72
2021/12/12 06:47:16;;;;;;;9.48;6.97;;;;;;;7.30;100.00;101897.97;5253903;28;20125;-72
2021/12/12 06:49:48;;;;;;;11.63;8.05;;;;;;;7.29;100.00;101896.28;5253947;28;20047;-72
2021/12/12 06:52:20;;;;;;;11.82;7.82;;;;;;;7.27;100.00;101892.94;5254779;28;20041;-72
2021/12/12 06:54:52;;;;;;;12.20;8.07;;;;;;;7.30;100.00;101904.94;5253869;28;20044;-72
2021/12/12 06:57:24;;;;;;;12.85;8.60;;;;;;;7.35;100.00;101905.56;5255399;28;20398;-72
2021/12/12 06:59:56;;;;;;;11.10;8.90;;;;;;;7.34;100.00;101908.22;5254885;28;20025;-72
2021/12/12 07:02:28;;;;;;;11.50;8.65;;;;;;;7.33;100.00;101910.00;5255234;28;20131;-72
2021/12/12 07:04:59;;;;;;;11.68;8.52;;;;;;;7.39;100.00;101908.84;5253173;28;20458;-72
2021/12/12 07:07:31;;;;;;;11.13;8.13;;;;;;;7.45;100.00;101908.50;5254532;28;20032;-72
2021/12/12 07:10:05;;;;;;;11.73;8.02;;;;;;;7.43;100.00;101910.34;5254435;28;20013;-71
2021/12/12 07:12:39;;;;;;;10.65;8.75;;;;;;;7.43;100.00;101915.56;5253785;28;20090;-72
2021/12/12 07:15:15;;;;;;;13.52;8.82;;;;;;;7.49;100.00;101910.84;5253898;28;20031;-72
2021/12/12 07:17:47;;;;;;;14.02;8.90;;;;;;;7.45;100.00;101911.94;5253996;28;20572;-72
2021/12/12 07:20:18;;;;;;;12.55;8.80;;;;;;;7.45;100.00;101908.50;5254717;28;20033;-72
2021/12/12 07:22:50;;;;;;;14.75;9.25;;;;;;;7.47;100.00;101910.09;5253183;28;20108;-72
2021/12/12 07:25:22;;;;;;;12.95;9.20;;;;;;;7.48;100.00;101913.53;5254580;28;20027;-72
2021/12/12 07:27:54;;;;;;;13.82;9.60;;;;;;;7.51;100.00;101910.78;5254657;28;20071;-71
2021/12/12 07:30:25;;;;;;;13.23;9.68;;;;;;;7.53;100.00;101909.75;5253563;28;20040;-72
2021/12/12 07:32:58;;;;;;;10.55;8.98;;;;;;;7.57;100.00;101913.03;5252549;28;20029;-72
2021/12/12 07:35:34;;;;;;;13.85;8.98;;;;;;;7.63;100.00;101911.84;5254388;28;20013;-72
2021/12/12 07:38:08;;;;;;;13.50;9.10;;;;;;;7.57;100.00;101913.03;5253986;28;20521;-72
2021/12/12 07:40:41;;;;;;;15.10;8.85;;;;;;;7.58;100.00;101917.34;5252940;28;20029;-71
2021/12/12 07:43:12;;;;;;;15.15;9.88;;;;;;;7.61;100.00;101916.31;5254106;28;20021;-72
2021/12/12 07:45:44;;;;;;;13.63;9.95;;;;;;;7.64;100.00;101914.38;5236214;28;20048;-72
2021/12/12 07:48:16;;;;;;;16.90;9.48;;;;;;;7.65;100.00;101920.44;5251097;28;20029;-72
2021/12/12 07:50:48;;;;;;;13.70;9.13;;;;;;;7.63;100.00;101917.06;5253504;28;20473;-72
2021/12/12 07:53:23;;;;;;;14.45;8.77;;;;;;;7.71;100.00;101925.31;5253417;28;20100;-72
2021/12/12 07:55:56;;;;;;;17.35;10.43;;;;;;;7.69;100.00;101916.72;5253227;28;20033;-72
2021/12/12 07:58:27;;;;;;;13.38;9.40;;;;;;;7.71;100.00;101922.72;5253615;28;20024;-72
2021/12/12 08:01:00;;;;;;;17.05;10.20;;;;;;;7.70;100.00;101921.88;5252963;28;20079;-72
2021/12/12 08:03:34;;;;;;;16.17;10.47;;;;;;;7.79;100.00;101928.34;5252708;28;20036;-72
2021/12/12 08:06:09;;;;;;;15.85;9.70;;;;;;;7.85;100.00;101935.84;5250917;28;20289;-74
2021/12/12 08:08:43;;;;;;;18.27;10.85;;;;;;;7.86;100.00;101931.44;5252308;28;20478;-73
2021/12/12 08:11:15;;;;;;;;;;;;;;;8.23;100.00;101931.03;5252363;28;20094;-74
2021/12/12 08:13:48;;;;;;;16.08;9.85;;;;;;;7.85;100.00;101937.59;5249830;28;19924;-72
2021/12/12 08:16:20;;;;;;;17.05;10.57;;;;;;;7.84;100.00;101939.38;5253323;28;20561;-72
2021/12/12 08:18:52;;;;;;;15.23;10.15;;;;;;;7.90;100.00;101949.44;5234542;28;20071;-72
2021/12/12 08:21:24;;;;;;;15.50;10.48;;;;;;;7.88;100.00;101940.88;5253597;28;20020;-73
2021/12/12 08:24:00;;;;;;;13.53;10.53;;;;;;;7.96;100.00;101940.44;5231167;28;20032;-73
2021/12/12 08:26:34;;;;;;;17.40;10.23;;;;;;;7.98;100.00;101954.25;5242685;28;20033;-75
2021/12/12 08:29:08;;;;;;;15.85;10.15;;;;;;;7.94;100.00;101953.56;5250289;28;20458;-72
2021/12/12 08:31:41;;;;;;;17.63;9.57;;;;;;;7.98;100.00;101968.13;5252130;28;20021;-73
2021/12/12 08:34:14;;;;;;;22.27;10.90;;;;;;;8.02;100.00;101981.84;5251055;28;21666;-75
2021/12/12 08:36:49;;;;;;;17.85;10.73;;;;;;;8.03;100.00;101973.06;5252641;28;20498;-72
2021/12/12 08:39:21;;;;;;;15.55;10.60;;;;;;;8.04;100.00;101970.41;5251785;28;20033;-72
2021/12/12 08:41:53;;;;;;;18.35;10.57;;;;;;;8.08;100.00;101975.47;5254515;28;20089;-73
2021/12/12 08:44:28;;;;;;;15.30;10.57;;;;;;;8.09;100.00;101980.56;5236647;28;20059;-72
2021/12/12 08:47:01;;;;;;;16.70;10.73;;;;;;;8.10;100.00;101973.59;5256181;28;20061;-72
2021/12/12 08:49:35;;;;;;;14.40;9.45;;;;;;;8.12;100.00;101979.56;5256731;28;20808;-72
2021/12/12 08:52:13;;;;;;;15.63;11.20;;;;;;;8.17;100.00;101975.75;5255341;28;20131;-72
2021/12/12 08:54:47;;;;;;;17.90;10.65;;;;;;;8.18;100.00;101987.03;5253148;28;20032;-74
2021/12/12 08:57:38;;;;;;;16.15;10.75;;;;;;;8.21;100.00;101987.72;5254353;28;20036;-74
2021/12/12 09:00:15;;;;;;;18.52;10.75;;;;;;;8.22;100.00;101978.97;5255706;28;20021;-72
2021/12/12 09:02:48;;;;;;;19.33;11.95;;;;;;;8.17;100.00;101986.19;5255251;28;20025;-72
2021/12/12 09:05:25;;;;;;;20.73;11.45;;;;;;;8.27;100.00;101997.81;5253913;28;20024;-72
2021/12/12 09:08:04;;;;;;;19.45;11.40;;;;;;;8.28;100.00;101996.03;5255096;28;20040;-72
2021/12/12 09:11:01;;;;;;;20.23;11.65;;;;;;;8.43;100.00;101995.19;5256178;28;20116;-72
2021/12/12 09:13:45;;;;;;;17.30;11.15;;;;;;;8.34;100.00;101992.25;5254533;28;20063;-72
2021/12/12 09:16:35;;;;;;;20.73;12.07;;;;;;;8.27;100.00;101996.97;5253208;28;20032;-71
2021/12/12 09:19:11;;;;;;;17.08;11.23;;;;;;;8.30;100.00;101999.44;5254089;28;20028;-72
2021/12/12 09:21:53;;;;;;;17.80;10.98;;;;;;;8.33;100.00;101998.38;5254242;28;20063;-72
2021/12/12 09:24:47;;;;;;;17.80;10.40;;;;;;;8.28;100.00;102009.94;5254880;28;20132;-72
2021/12/12 09:27:24;;;;;;;19.77;10.90;;;;;;;8.44;100.00;102012.53;5254244;28;20029;-72
2021/12/12 09:30:07;;;;;;;17.88;11.05;;;;;;;8.42;100.00;102018.81;5252724;28;20447;-72
2021/12/12 09:32:49;;;;;;;20.83;11.63;;;;;;;8.50;100.00;102017.44;5255005;28;20028;-73
2021/12/12 09:35:45;;;;;;;17.38;11.00;;;;;;;8.62;100.00;102015.03;5255153;28;20807;-72
2021/12/12 09:38:46;;;;;;;20.55;11.68;;;;;;;8.68;100.00;102022.53;5253202;28;20605;-74
2021/12/12 09:41:24;;;;;;;18.98;9.98;;;;;;;8.59;100.00;102021.28;5250482;28;20406;-71
2021/12/12 09:44:17;;;;;;;19.38;10.98;;;;;;;8.60;100.00;102027.34;5236959;28;20549;-72
2021/12/12 09:53:23;;;;;;;18.05;10.80;;;;;;;8.67;100.00;102036.50;5253069;28;20394;-72
2021/12/12 09:56:06;;;;;;;20.17;10.57;;;;;;;8.74;100.00;102045.66;5253129;28;20036;-72
2021/12/12 09:59:16;;;;;;;18.23;11.25;;;;;;;8.92;100.00;102035.94;5254649;28;20071;-73
2021/12/12 10:02:19;;;;;;;16.02;10.70;;;;;;;8.82;100.00;102040.00;5217398;28;20044;-71
2021/12/12 10:05:17;;;;;;;20.63;11.07;;;;;;;8.92;100.00;102035.94;5254084;28;20087;-74
2021/12/12 10:08:24;;;;;;;17.45;9.98;;;;;;;8.94;100.00;102034.06;5254410;28;20024;-73
2021/12/12 10:11:01;;;;;;;18.92;11.50;;;;;;;8.75;100.00;102040.38;5251726;28;20037;-75
2021/12/12 10:13:54;;;;;;;18.45;10.60;;;;;;;8.84;100.00;102036.38;5254177;28;20033;-72
2021/12/12 10:16:35;;;;;;;17.75;10.88;;;;;;;8.88;100.00;102035.28;5254681;28;20110;-72
2021/12/12 10:19:26;;;;;;;16.38;11.40;;;;;;;8.88;100.00;102032.66;5253358;28;20037;-75
2021/12/12 10:22:28;;;;;;;18.83;10.45;;;;;;;8.99;100.00;102039.88;5253439;28;20037;-73
2021/12/12 10:25:07;;;;;;;19.73;11.38;;;;;;;8.94;100.00;102042.75;5253520;28;20033;-72
2021/12/12 10:27:43;;;;;;;16.92;10.80;;;;;;;8.87;100.00;102046.66;5253170;28;20029;-73
2021/12/12 10:30:18;;;;;;;18.73;11.80;;;;;;;8.93;100.00;102043.66;5233641;28;20098;-73
2021/12/12 10:33:17;;;;;;;20.77;11.55;;;;;;;8.94;100.00;102041.88;5252447;28;20025;-72
2021/12/12 10:35:53;;;;;;;21.20;11.77;;;;;;;8.94;100.00;102042.75;5249835;28;20044;-72
2021/12/12 10:38:51;;;;;;;19.80;11.70;;;;;;;9.02;100.00;102044.91;5253291;28;20025;-72
2021/12/12 10:41:30;;;;;;;20.27;11.82;;;;;;;9.03;100.00;102043.97;5253137;28;20112;-72
2021/12/12 10:44:07;;;;;;;25.02;11.65;;;;;;;9.06;100.00;102038.56;5252648;28;20115;-73
2021/12/12 10:46:50;;;;;;;19.83;12.25;;;;;;;9.07;100.00;102040.25;5253281;28;20091;-72
2021/12/12 10:49:35;;;;;;;21.40;11.57;;;;;;;9.02;100.00;102045.75;5220263;28;20033;-74
2021/12/12 10:52:11;;;;;;;19.98;12.35;;;;;;;9.02;100.00;102047.53;5253743;28;20574;-71
2021/12/12 10:54:51;;;;;;;17.25;12.13;;;;;;;9.07;100.00;102045.47;5253848;28;20040;-72
2021/12/12 10:57:27;;;;;;;15.73;11.63;;;;;;;9.07;100.00;102042.88;5246030;28;20552;-76
2021/12/12 11:00:08;;;;;;;18.17;11.93;;;;;;;9.17;100.00;102049.25;5252803;28;20032;-72
2021/12/12 11:02:49;;;;;;;18.15;11.25;;;;;;;9.13;100.00;102042.50;5254192;28;20439;-72
2021/12/12 11:05:27;;;;;;;20.60;12.02;;;;;;;9.14;100.00;102038.97;5254818;28;20091;-73
2021/12/12 11:08:08;;;;;;;19.95;12.18;;;;;;;9.21;100.00;102049.91;5251902;28;20024;-74
2021/12/12 11:10:42;;;;;;;18.50;11.73;;;;;;;9.22;100.00;102048.97;5254541;28;20556;-72
2021/12/12 11:13:28;;;;;;;19.08;11.25;;;;;;;9.34;100.00;102042.16;5253852;28;20025;-72
2021/12/12 11:16:15;;;;;;;17.35;11.40;;;;;;;9.34;100.00;102042.16;5252052;28;20041;-72
2021/12/12 11:18:57;;;;;;;15.40;10.95;;;;;;;9.33;100.00;102037.84;5253953;28;20043;-72
2021/12/12 11:21:39;;;;;;;16.02;11.43;;;;;;;9.37;100.00;102040.19;5232688;28;20025;-73
2021/12/12 11:24:26;;;;;;;13.93;9.73;;;;;;;9.48;100.00;102036.94;5252652;28;20021;-73
2021/12/12 11:27:21;;;;;;;13.23;9.77;;;;;;;9.45;100.00;102024.88;5252895;28;20032;-72
2021/12/12 11:30:10;;;;;;;14.50;10.07;;;;;;;9.47;100.00;102033.47;5252484;28;20407;-72
2021/12/12 11:32:42;;;;;;;13.10;9.50;;;;;;;9.45;100.00;102026.66;5250944;28;20444;-73
2021/12/12 11:35:19;;;;;;;17.17;10.45;;;;;;;9.49;100.00;102034.19;5254107;28;20020;-72
2021/12/12 11:37:59;;;;;;;12.73;9.20;;;;;;;9.56;100.00;102033.84;5254074;28;20478;-73
2021/12/12 11:40:56;;;;;;;12.77;8.95;;;;;;;9.59;100.00;102028.41;5253775;28;20417;-73
2021/12/12 11:43:57;;;;;;;14.93;9.45;;;;;;;9.71;100.00;102033.72;5252761;28;20386;-72
2021/12/12 11:46:59;;;;;;;14.48;9.07;;;;;;;9.74;100.00;102035.31;5253779;28;20048;-73
2021/12/12 11:49:48;;;;;;;9.90;8.82;;;;;;;9.67;100.00;102042.72;5253961;28;20043;-73
2021/12/12 11:52:36;;;;;;;11.68;9.23;;;;;;;9.67;100.00;102040.09;5253788;28;20033;-74
2021/12/12 11:55:15;;;;;;;12.38;9.63;;;;;;;9.71;100.00;102046.81;5253849;28;20040;-72
2021/12/12 11:57:55;;;;;;;11.20;9.35;;;;;;;9.64;100.00;102040.28;5253656;28;20144;-73
2021/12/12 12:00:40;;;;;;;12.27;9.23;;;;;;;9.71;100.00;102040.75;5253015;28;20028;-72
2021/12/12 12:03:23;;;;;;;12.45;8.60;;;;;;;9.73;100.00;102036.22;5253785;28;20047;-73
2021/12/12 12:06:14;;;;;;;12.07;9.35;;;;;;;9.74;100.00;102035.31;5253533;28;20406;-72
2021/12/12 12:09:04;;;;;;;11.70;8.43;;;;;;;9.80;100.00;102039.31;5252669;28;20033;-74
2021/12/12 12:12:17;;;;;;;12.32;8.52;;;;;;;9.92;100.00;102036.75;5253768;28;20386;-72
2021/12/12 12:15:06;;;;;;;9.15;8.02;;;;;;;9.85;100.00;102037.25;5252784;28;20040;-72
2021/12/12 12:18:01;;;;;;;10.20;8.15;;;;;;;9.96;100.00;102051.38;5259060;28;20035;-72
2021/12/12 12:21:16;;;;;;;11.07;8.32;;;;;;;9.93;100.00;102056.78;5259905;28;20502;-72
2021/12/12 12:24:17;;;;;;;12.10;9.10;;;;;;;9.90;100.00;102056.97;5259796;28;20067;-73
2021/12/12 12:27:02;;;;;;;9.57;8.57;;;;;;;9.84;100.00;102044.25;5260392;28;20021;-72
2021/12/12 12:30:15;;;;;;;10.77;8.55;;;;;;;10.06;100.00;102058.63;5259816;28;20029;-73
2021/12/12 12:33:12;;;;;;;12.15;9.25;;;;;;;10.08;100.00;102054.16;5258497;28;20044;-72
2021/12/12 12:36:24;;;;;;;11.25;9.02;;;;;;;10.12;100.00;102055.63;5259757;28;20040;-72
2021/12/12 12:39:24;;;;;;;12.27;9.07;;;;;;;10.09;100.00;102058.44;5260084;28;20075;-72